sensor_id;sensor_type;location;lat;lon;timestamp;temperature;humidity
44537;DHT22;30245;51.966;6.292;2023-05-10T00:00:08;19.60;64.20
44537;DHT22;30245;51.966;6.292;2023-05-10T00:02:34;19.60;64.20
44537;DHT22;30245;51.966;6.292;2023-05-10T00:05:00;19.60;64.80
44537;DHT22;30245;51.966;6.292;2023-05-10T00:07:26;19.60;64.20
44537;DHT22;30245;51.966;6.292;2023-05-10T00:09:51;19.60;64.20
44537;DHT22;30245;51.966;6.292;2023-05-10T00:12:17;19.60;64.10
44537;DHT22;30245;51.966;6.292;2023-05-10T00:14:42;19.60;64.00
44537;DHT22;30245;51.966;6.292;2023-05-10T00:17:08;19.70;64.00
44537;DHT22;30245;51.966;6.292;2023-05-10T00:19:34;19.60;63.90
44537;DHT22;30245;51.966;6.292;2023-05-10T00:21:59;19.70;64.00
44537;DHT22;30245;51.966;6.292;2023-05-10T00:24:25;19.60;64.00
44537;DHT22;30245;51.966;6.292;2023-05-10T00:26:50;19.50;64.20
44537;DHT22;30245;51.966;6.292;2023-05-10T00:29:16;19.50;64.40
44537;DHT22;30245;51.966;6.292;2023-05-10T00:31:41;19.50;64.50
44537;DHT22;30245;51.966;6.292;2023-05-10T00:34:07;19.50;64.60
44537;DHT22;30245;51.966;6.292;2023-05-10T00:36:32;19.50;64.60
44537;DHT22;30245;51.966;6.292;2023-05-10T00:38:58;19.50;64.50
44537;DHT22;30245;51.966;6.292;2023-05-10T00:41:24;19.50;64.50
44537;DHT22;30245;51.966;6.292;2023-05-10T00:43:49;19.50;64.60
44537;DHT22;30245;51.966;6.292;2023-05-10T00:46:15;19.50;64.50
44537;DHT22;30245;51.966;6.292;2023-05-10T00:48:43;19.50;64.50
44537;DHT22;30245;51.966;6.292;2023-05-10T00:51:08;19.50;64.70
44537;DHT22;30245;51.966;6.292;2023-05-10T00:53:34;19.50;64.90
44537;DHT22;30245;51.966;6.292;2023-05-10T00:56:01;19.50;64.80
44537;DHT22;30245;51.966;6.292;2023-05-10T00:58:28;19.50;64.70
44537;DHT22;30245;51.966;6.292;2023-05-10T01:00:55;19.50;64.70
44537;DHT22;30245;51.966;6.292;2023-05-10T01:03:22;19.50;64.80
44537;DHT22;30245;51.966;6.292;2023-05-10T01:05:48;19.50;64.60
44537;DHT22;30245;51.966;6.292;2023-05-10T01:08:13;19.50;64.60
44537;DHT22;30245;51.966;6.292;2023-05-10T01:10:39;19.50;64.60
44537;DHT22;30245;51.966;6.292;2023-05-10T01:13:05;19.50;64.60
44537;DHT22;30245;51.966;6.292;2023-05-10T01:15:31;19.50;64.60
44537;DHT22;30245;51.966;6.292;2023-05-10T01:17:57;19.50;64.50
44537;DHT22;30245;51.966;6.292;2023-05-10T01:20:24;19.40;64.60
44537;DHT22;30245;51.966;6.292;2023-05-10T01:35:00;19.50;64.70
44537;DHT22;30245;51.966;6.292;2023-05-10T01:37:46;19.40;64.70
44537;DHT22;30245;51.966;6.292;2023-05-10T01:40:48;19.40;64.70
44537;DHT22;30245;51.966;6.292;2023-05-10T01:43:22;19.40;64.80
44537;DHT22;30245;51.966;6.292;2023-05-10T01:48:27;19.50;64.80
44537;DHT22;30245;51.966;6.292;2023-05-10T01:50:54;19.40;64.90
44537;DHT22;30245;51.966;6.292;2023-05-10T01:53:21;19.20;65.20
44537;DHT22;30245;51.966;6.292;2023-05-10T01:55:50;19.10;65.60
44537;DHT22;30245;51.966;6.292;2023-05-10T01:58:21;19.00;66.00
44537;DHT22;30245;51.966;6.292;2023-05-10T02:00:48;19.00;66.20
44537;DHT22;30245;51.966;6.292;2023-05-10T02:03:16;19.10;66.20
44537;DHT22;30245;51.966;6.292;2023-05-10T02:05:43;19.00;66.20
44537;DHT22;30245;51.966;6.292;2023-05-10T02:08:11;19.00;66.20
44537;DHT22;30245;51.966;6.292;2023-05-10T02:10:37;19.10;66.20
44537;DHT22;30245;51.966;6.292;2023-05-10T02:13:05;19.10;66.00
44537;DHT22;30245;51.966;6.292;2023-05-10T02:15:32;19.20;65.90
44537;DHT22;30245;51.966;6.292;2023-05-10T02:17:59;19.20;66.00
44537;DHT22;30245;51.966;6.292;2023-05-10T02:20:26;19.20;66.10
44537;DHT22;30245;51.966;6.292;2023-05-10T02:22:54;19.20;65.90
44537;DHT22;30245;51.966;6.292;2023-05-10T02:25:22;19.30;65.80
44537;DHT22;30245;51.966;6.292;2023-05-10T02:27:48;19.40;65.60
44537;DHT22;30245;51.966;6.292;2023-05-10T02:30:16;19.30;65.60
44537;DHT22;30245;51.966;6.292;2023-05-10T02:32:43;19.40;65.60
44537;DHT22;30245;51.966;6.292;2023-05-10T02:35:09;19.40;65.60
44537;DHT22;30245;51.966;6.292;2023-05-10T02:37:37;19.40;65.70
44537;DHT22;30245;51.966;6.292;2023-05-10T02:40:04;19.50;65.70
44537;DHT22;30245;51.966;6.292;2023-05-10T02:42:35;19.50;65.60
44537;DHT22;30245;51.966;6.292;2023-05-10T02:45:03;19.50;65.50
44537;DHT22;30245;51.966;6.292;2023-05-10T02:47:30;19.50;65.60
44537;DHT22;30245;51.966;6.292;2023-05-10T02:49:56;19.50;65.60
44537;DHT22;30245;51.966;6.292;2023-05-10T02:52:25;19.50;65.80
44537;DHT22;30245;51.966;6.292;2023-05-10T02:54:55;19.40;65.90
44537;DHT22;30245;51.966;6.292;2023-05-10T02:57:26;19.30;66.00
44537;DHT22;30245;51.966;6.292;2023-05-10T02:59:52;19.30;66.10
44537;DHT22;30245;51.966;6.292;2023-05-10T03:02:18;19.40;66.20
44537;DHT22;30245;51.966;6.292;2023-05-10T03:04:45;19.40;66.30
44537;DHT22;30245;51.966;6.292;2023-05-10T03:07:10;19.50;66.20
44537;DHT22;30245;51.966;6.292;2023-05-10T03:09:36;19.50;66.00
44537;DHT22;30245;51.966;6.292;2023-05-10T03:12:15;19.50;66.00
44537;DHT22;30245;51.966;6.292;2023-05-10T03:15:00;19.50;66.00
44537;DHT22;30245;51.966;6.292;2023-05-10T03:17:48;19.50;66.20
44537;DHT22;30245;51.966;6.292;2023-05-10T03:22:53;19.50;66.10
44537;DHT22;30245;51.966;6.292;2023-05-10T03:25:21;19.50;66.10
44537;DHT22;30245;51.966;6.292;2023-05-10T03:27:48;19.50;66.20
44537;DHT22;30245;51.966;6.292;2023-05-10T03:30:14;19.50;66.20
44537;DHT22;30245;51.966;6.292;2023-05-10T03:32:40;19.50;66.10
44537;DHT22;30245;51.966;6.292;2023-05-10T03:35:10;19.50;66.20
44537;DHT22;30245;51.966;6.292;2023-05-10T03:37:37;19.50;66.20
44537;DHT22;30245;51.966;6.292;2023-05-10T03:40:03;19.40;66.30
44537;DHT22;30245;51.966;6.292;2023-05-10T03:42:29;19.30;66.30
44537;DHT22;30245;51.966;6.292;2023-05-10T03:44:55;19.30;66.60
44537;DHT22;30245;51.966;6.292;2023-05-10T03:47:20;19.30;66.70
44537;DHT22;30245;51.966;6.292;2023-05-10T03:49:46;19.30;66.70
44537;DHT22;30245;51.966;6.292;2023-05-10T03:52:12;19.30;66.50
44537;DHT22;30245;51.966;6.292;2023-05-10T03:54:37;19.40;66.50
44537;DHT22;30245;51.966;6.292;2023-05-10T03:57:03;19.30;66.60
44537;DHT22;30245;51.966;6.292;2023-05-10T03:59:29;19.30;66.60
44537;DHT22;30245;51.966;6.292;2023-05-10T04:01:55;19.30;66.60
44537;DHT22;30245;51.966;6.292;2023-05-10T04:04:21;19.30;66.40
44537;DHT22;30245;51.966;6.292;2023-05-10T04:06:47;19.20;66.40
44537;DHT22;30245;51.966;6.292;2023-05-10T04:09:13;19.20;66.50
44537;DHT22;30245;51.966;6.292;2023-05-10T04:11:38;19.20;66.60
44537;DHT22;30245;51.966;6.292;2023-05-10T04:14:04;19.20;66.50
44537;DHT22;30245;51.966;6.292;2023-05-10T04:16:30;19.10;66.30
44537;DHT22;30245;51.966;6.292;2023-05-10T04:18:55;19.10;66.50
44537;DHT22;30245;51.966;6.292;2023-05-10T04:21:21;19.00;66.50
44537;DHT22;30245;51.966;6.292;2023-05-10T04:23:47;18.90;66.60
44537;DHT22;30245;51.966;6.292;2023-05-10T04:26:13;18.80;66.60
44537;DHT22;30245;51.966;6.292;2023-05-10T04:28:38;18.90;67.00
44537;DHT22;30245;51.966;6.292;2023-05-10T04:31:09;18.80;66.70
44537;DHT22;30245;51.966;6.292;2023-05-10T04:33:35;18.80;66.70
44537;DHT22;30245;51.966;6.292;2023-05-10T04:36:02;18.80;66.60
44537;DHT22;30245;51.966;6.292;2023-05-10T04:38:28;18.70;66.60
44537;DHT22;30245;51.966;6.292;2023-05-10T04:40:54;18.70;67.40
44537;DHT22;30245;51.966;6.292;2023-05-10T04:43:19;18.60;66.90
44537;DHT22;30245;51.966;6.292;2023-05-10T04:45:45;18.60;67.00
44537;DHT22;30245;51.966;6.292;2023-05-10T04:48:11;18.60;67.10
44537;DHT22;30245;51.966;6.292;2023-05-10T04:50:37;18.50;67.20
44537;DHT22;30245;51.966;6.292;2023-05-10T04:53:04;18.50;67.30
44537;DHT22;30245;51.966;6.292;2023-05-10T04:55:29;18.50;67.40
44537;DHT22;30245;51.966;6.292;2023-05-10T04:57:55;18.50;67.30
44537;DHT22;30245;51.966;6.292;2023-05-10T05:00:22;18.60;67.10
44537;DHT22;30245;51.966;6.292;2023-05-10T05:02:48;18.60;66.90
44537;DHT22;30245;51.966;6.292;2023-05-10T05:05:14;18.70;66.80
44537;DHT22;30245;51.966;6.292;2023-05-10T05:07:39;18.70;66.70
44537;DHT22;30245;51.966;6.292;2023-05-10T05:10:06;18.70;66.80
44537;DHT22;30245;51.966;6.292;2023-05-10T05:12:32;18.70;66.60
44537;DHT22;30245;51.966;6.292;2023-05-10T05:14:58;18.70;66.50
44537;DHT22;30245;51.966;6.292;2023-05-10T05:17:23;18.80;66.30
44537;DHT22;30245;51.966;6.292;2023-05-10T05:19:49;18.80;66.30
44537;DHT22;30245;51.966;6.292;2023-05-10T05:22:14;18.80;66.40
44537;DHT22;30245;51.966;6.292;2023-05-10T05:24:40;18.80;66.40
44537;DHT22;30245;51.966;6.292;2023-05-10T05:27:06;18.90;66.40
44537;DHT22;30245;51.966;6.292;2023-05-10T05:29:32;19.00;66.30
44537;DHT22;30245;51.966;6.292;2023-05-10T05:31:57;19.00;66.10
44537;DHT22;30245;51.966;6.292;2023-05-10T05:34:23;19.00;66.10
44537;DHT22;30245;51.966;6.292;2023-05-10T05:36:49;19.10;66.00
44537;DHT22;30245;51.966;6.292;2023-05-10T05:39:15;19.00;65.90
44537;DHT22;30245;51.966;6.292;2023-05-10T05:41:41;19.10;65.90
44537;DHT22;30245;51.966;6.292;2023-05-10T05:44:07;19.10;66.00
44537;DHT22;30245;51.966;6.292;2023-05-10T05:46:32;19.10;66.60
44537;DHT22;30245;51.966;6.292;2023-05-10T05:48:58;19.10;65.90
44537;DHT22;30245;51.966;6.292;2023-05-10T05:51:23;19.10;65.90
44537;DHT22;30245;51.966;6.292;2023-05-10T05:53:49;19.10;65.80
44537;DHT22;30245;51.966;6.292;2023-05-10T05:56:14;19.10;65.80
44537;DHT22;30245;51.966;6.292;2023-05-10T05:58:40;19.10;65.80
44537;DHT22;30245;51.966;6.292;2023-05-10T06:01:05;19.10;65.90
44537;DHT22;30245;51.966;6.292;2023-05-10T06:03:31;19.10;65.90
44537;DHT22;30245;51.966;6.292;2023-05-10T06:05:57;19.10;65.90
44537;DHT22;30245;51.966;6.292;2023-05-10T06:08:23;19.10;65.80
44537;DHT22;30245;51.966;6.292;2023-05-10T06:10:48;19.10;65.90
44537;DHT22;30245;51.966;6.292;2023-05-10T06:13:14;19.10;66.00
44537;DHT22;30245;51.966;6.292;2023-05-10T06:15:40;19.10;66.60
44537;DHT22;30245;51.966;6.292;2023-05-10T06:18:06;19.10;65.90
44537;DHT22;30245;51.966;6.292;2023-05-10T06:20:31;19.20;65.80
44537;DHT22;30245;51.966;6.292;2023-05-10T06:22:57;19.20;65.70
44537;DHT22;30245;51.966;6.292;2023-05-10T06:25:23;19.20;65.80
44537;DHT22;30245;51.966;6.292;2023-05-10T06:27:49;19.30;65.90
44537;DHT22;30245;51.966;6.292;2023-05-10T06:30:14;19.30;65.80
44537;DHT22;30245;51.966;6.292;2023-05-10T06:32:41;19.20;65.80
44537;DHT22;30245;51.966;6.292;2023-05-10T06:35:07;19.30;66.00
44537;DHT22;30245;51.966;6.292;2023-05-10T06:37:33;19.40;65.80
44537;DHT22;30245;51.966;6.292;2023-05-10T06:39:59;19.50;65.60
44537;DHT22;30245;51.966;6.292;2023-05-10T06:42:25;19.40;65.60
44537;DHT22;30245;51.966;6.292;2023-05-10T06:44:52;19.40;65.60
44537;DHT22;30245;51.966;6.292;2023-05-10T06:47:17;19.40;65.90
44537;DHT22;30245;51.966;6.292;2023-05-10T06:49:43;19.50;65.80
44537;DHT22;30245;51.966;6.292;2023-05-10T06:52:08;19.60;65.60
44537;DHT22;30245;51.966;6.292;2023-05-10T06:54:34;19.60;65.40
44537;DHT22;30245;51.966;6.292;2023-05-10T06:56:59;19.70;65.10
44537;DHT22;30245;51.966;6.292;2023-05-10T06:59:25;19.80;65.00
44537;DHT22;30245;51.966;6.292;2023-05-10T07:01:51;19.80;65.10
44537;DHT22;30245;51.966;6.292;2023-05-10T07:04:16;19.80;65.10
44537;DHT22;30245;51.966;6.292;2023-05-10T07:06:43;19.80;65.10
44537;DHT22;30245;51.966;6.292;2023-05-10T07:09:11;19.90;65.00
44537;DHT22;30245;51.966;6.292;2023-05-10T07:11:37;19.90;64.90
44537;DHT22;30245;51.966;6.292;2023-05-10T07:14:03;20.00;64.80
44537;DHT22;30245;51.966;6.292;2023-05-10T07:16:28;20.00;64.80
44537;DHT22;30245;51.966;6.292;2023-05-10T07:18:54;20.00;65.40
44537;DHT22;30245;51.966;6.292;2023-05-10T07:21:19;20.00;64.90
44537;DHT22;30245;51.966;6.292;2023-05-10T07:23:45;20.00;64.90
44537;DHT22;30245;51.966;6.292;2023-05-10T07:26:11;20.00;64.80
44537;DHT22;30245;51.966;6.292;2023-05-10T07:28:37;20.00;64.80
44537;DHT22;30245;51.966;6.292;2023-05-10T07:31:04;20.00;64.70
44537;DHT22;30245;51.966;6.292;2023-05-10T07:33:30;19.90;64.70
44537;DHT22;30245;51.966;6.292;2023-05-10T07:35:55;20.00;64.80
44537;DHT22;30245;51.966;6.292;2023-05-10T07:38:21;20.00;64.70
44537;DHT22;30245;51.966;6.292;2023-05-10T07:40:46;20.00;64.70
44537;DHT22;30245;51.966;6.292;2023-05-10T07:43:12;20.00;64.70
44537;DHT22;30245;51.966;6.292;2023-05-10T07:45:38;19.90;64.80
44537;DHT22;30245;51.966;6.292;2023-05-10T07:48:03;19.90;65.00
44537;DHT22;30245;51.966;6.292;2023-05-10T07:50:29;19.90;65.00
44537;DHT22;30245;51.966;6.292;2023-05-10T07:52:54;19.90;65.00
44537;DHT22;30245;51.966;6.292;2023-05-10T07:55:20;19.90;64.90
44537;DHT22;30245;51.966;6.292;2023-05-10T07:57:46;19.90;65.00
44537;DHT22;30245;51.966;6.292;2023-05-10T08:00:13;19.90;65.00
44537;DHT22;30245;51.966;6.292;2023-05-10T08:02:41;19.80;65.00
44537;DHT22;30245;51.966;6.292;2023-05-10T08:05:07;19.80;65.30
44537;DHT22;30245;51.966;6.292;2023-05-10T08:07:33;19.80;65.30
44537;DHT22;30245;51.966;6.292;2023-05-10T08:09:59;19.70;65.30
44537;DHT22;30245;51.966;6.292;2023-05-10T08:12:24;19.60;65.40
44537;DHT22;30245;51.966;6.292;2023-05-10T08:14:50;19.70;65.50
44537;DHT22;30245;51.966;6.292;2023-05-10T08:17:15;19.70;65.40
44537;DHT22;30245;51.966;6.292;2023-05-10T08:19:41;19.80;65.30
44537;DHT22;30245;51.966;6.292;2023-05-10T08:22:06;19.80;65.20
44537;DHT22;30245;51.966;6.292;2023-05-10T08:24:32;19.90;65.10
44537;DHT22;30245;51.966;6.292;2023-05-10T08:26:59;19.90;65.00
44537;DHT22;30245;51.966;6.292;2023-05-10T08:29:26;20.00;64.90
44537;DHT22;30245;51.966;6.292;2023-05-10T08:31:51;20.10;64.90
44537;DHT22;30245;51.966;6.292;2023-05-10T08:34:17;20.10;64.70
44537;DHT22;30245;51.966;6.292;2023-05-10T08:36:42;20.00;64.80
44537;DHT22;30245;51.966;6.292;2023-05-10T08:39:08;20.00;64.80
44537;DHT22;30245;51.966;6.292;2023-05-10T08:41:35;20.10;64.70
44537;DHT22;30245;51.966;6.292;2023-05-10T08:44:03;20.00;64.90
44537;DHT22;30245;51.966;6.292;2023-05-10T08:46:31;20.10;65.00
44537;DHT22;30245;51.966;6.292;2023-05-10T08:49:01;20.10;64.90
44537;DHT22;30245;51.966;6.292;2023-05-10T08:51:31;20.10;64.80
44537;DHT22;30245;51.966;6.292;2023-05-10T08:53:58;20.20;64.90
44537;DHT22;30245;51.966;6.292;2023-05-10T08:56:24;20.30;64.70
44537;DHT22;30245;51.966;6.292;2023-05-10T08:58:50;20.30;64.30
44537;DHT22;30245;51.966;6.292;2023-05-10T09:01:18;20.40;64.30
44537;DHT22;30245;51.966;6.292;2023-05-10T09:03:46;20.40;64.30
44537;DHT22;30245;51.966;6.292;2023-05-10T09:06:12;20.40;64.30
44537;DHT22;30245;51.966;6.292;2023-05-10T09:08:40;20.40;64.50
44537;DHT22;30245;51.966;6.292;2023-05-10T09:11:06;20.40;64.30
44537;DHT22;30245;51.966;6.292;2023-05-10T09:13:32;20.50;64.30
44537;DHT22;30245;51.966;6.292;2023-05-10T09:15:58;20.60;64.10
44537;DHT22;30245;51.966;6.292;2023-05-10T09:18:24;20.70;64.00
44537;DHT22;30245;51.966;6.292;2023-05-10T09:20:50;20.70;63.80
44537;DHT22;30245;51.966;6.292;2023-05-10T09:23:15;20.80;63.80
44537;DHT22;30245;51.966;6.292;2023-05-10T09:25:41;20.90;63.90
44537;DHT22;30245;51.966;6.292;2023-05-10T09:28:08;21.00;63.60
44537;DHT22;30245;51.966;6.292;2023-05-10T09:30:34;21.00;63.40
44537;DHT22;30245;51.966;6.292;2023-05-10T09:33:01;21.00;63.30
44537;DHT22;30245;51.966;6.292;2023-05-10T09:35:28;21.10;63.20
44537;DHT22;30245;51.966;6.292;2023-05-10T09:37:55;21.10;63.00
44537;DHT22;30245;51.966;6.292;2023-05-10T09:40:23;21.20;62.80
44537;DHT22;30245;51.966;6.292;2023-05-10T09:43:00;21.30;62.60
44537;DHT22;30245;51.966;6.292;2023-05-10T09:45:28;21.20;62.30
44537;DHT22;30245;51.966;6.292;2023-05-10T09:47:54;21.20;62.60
44537;DHT22;30245;51.966;6.292;2023-05-10T09:50:20;21.20;62.30
44537;DHT22;30245;51.966;6.292;2023-05-10T09:52:47;21.20;62.20
44537;DHT22;30245;51.966;6.292;2023-05-10T09:55:13;21.10;61.90
44537;DHT22;30245;51.966;6.292;2023-05-10T09:57:39;21.00;61.90
44537;DHT22;30245;51.966;6.292;2023-05-10T10:00:06;21.00;62.00
44537;DHT22;30245;51.966;6.292;2023-05-10T10:02:32;21.00;62.00
44537;DHT22;30245;51.966;6.292;2023-05-10T10:05:00;20.90;62.10
44537;DHT22;30245;51.966;6.292;2023-05-10T10:07:27;20.80;62.20
44537;DHT22;30245;51.966;6.292;2023-05-10T10:09:53;20.80;62.30
44537;DHT22;30245;51.966;6.292;2023-05-10T10:12:19;20.90;62.20
44537;DHT22;30245;51.966;6.292;2023-05-10T10:14:49;21.00;62.00
44537;DHT22;30245;51.966;6.292;2023-05-10T10:17:16;21.20;61.80
44537;DHT22;30245;51.966;6.292;2023-05-10T10:19:42;21.20;61.20
44537;DHT22;30245;51.966;6.292;2023-05-10T10:22:08;21.20;61.30
44537;DHT22;30245;51.966;6.292;2023-05-10T10:24:36;21.30;61.20
44537;DHT22;30245;51.966;6.292;2023-05-10T10:27:12;21.40;61.00
44537;DHT22;30245;51.966;6.292;2023-05-10T10:30:18;21.60;60.70
44537;DHT22;30245;51.966;6.292;2023-05-10T10:35:44;22.10;59.80
44537;DHT22;30245;51.966;6.292;2023-05-10T10:38:12;22.20;59.40
44537;DHT22;30245;51.966;6.292;2023-05-10T10:40:38;22.30;59.10
44537;DHT22;30245;51.966;6.292;2023-05-10T10:43:23;22.30;58.80
44537;DHT22;30245;51.966;6.292;2023-05-10T10:46:13;22.20;58.40
44537;DHT22;30245;51.966;6.292;2023-05-10T10:48:39;22.10;58.60
44537;DHT22;30245;51.966;6.292;2023-05-10T10:51:05;22.10;59.30
44537;DHT22;30245;51.966;6.292;2023-05-10T10:53:31;22.20;58.20
44537;DHT22;30245;51.966;6.292;2023-05-10T10:56:11;22.20;57.80
44537;DHT22;30245;51.966;6.292;2023-05-10T10:58:39;22.20;57.80
44537;DHT22;30245;51.966;6.292;2023-05-10T11:01:18;22.30;57.30
44537;DHT22;30245;51.966;6.292;2023-05-10T11:06:35;22.40;56.60
44537;DHT22;30245;51.966;6.292;2023-05-10T11:09:12;22.50;56.70
44537;DHT22;30245;51.966;6.292;2023-05-10T11:11:53;22.70;56.60
44537;DHT22;30245;51.966;6.292;2023-05-10T11:14:23;22.90;55.60
44537;DHT22;30245;51.966;6.292;2023-05-10T11:16:49;23.20;55.20
44537;DHT22;30245;51.966;6.292;2023-05-10T11:19:16;23.40;54.60
44537;DHT22;30245;51.966;6.292;2023-05-10T11:24:20;23.80;53.90
44537;DHT22;30245;51.966;6.292;2023-05-10T11:26:48;24.10;53.30
44537;DHT22;30245;51.966;6.292;2023-05-10T11:29:16;24.20;52.60
44537;DHT22;30245;51.966;6.292;2023-05-10T11:31:45;24.10;52.20
44537;DHT22;30245;51.966;6.292;2023-05-10T11:34:13;24.10;52.20
44537;DHT22;30245;51.966;6.292;2023-05-10T11:36:51;24.30;52.10
44537;DHT22;30245;51.966;6.292;2023-05-10T11:39:17;24.60;51.30
44537;DHT22;30245;51.966;6.292;2023-05-10T11:41:42;24.80;50.90
44537;DHT22;30245;51.966;6.292;2023-05-10T11:44:09;25.10;50.70
44537;DHT22;30245;51.966;6.292;2023-05-10T11:46:36;25.30;50.10
44537;DHT22;30245;51.966;6.292;2023-05-10T11:49:02;25.50;49.80
44537;DHT22;30245;51.966;6.292;2023-05-10T11:51:32;25.70;49.60
44537;DHT22;30245;51.966;6.292;2023-05-10T11:53:58;25.70;48.90
44537;DHT22;30245;51.966;6.292;2023-05-10T11:56:23;25.90;48.50
44537;DHT22;30245;51.966;6.292;2023-05-10T11:58:56;26.10;47.90
44537;DHT22;30245;51.966;6.292;2023-05-10T12:01:24;26.30;47.60
44537;DHT22;30245;51.966;6.292;2023-05-10T12:03:51;26.30;47.30
44537;DHT22;30245;51.966;6.292;2023-05-10T12:06:19;26.40;47.30
44537;DHT22;30245;51.966;6.292;2023-05-10T12:08:46;26.50;47.20
44537;DHT22;30245;51.966;6.292;2023-05-10T12:11:13;26.80;47.00
44537;DHT22;30245;51.966;6.292;2023-05-10T12:13:43;26.80;46.00
44537;DHT22;30245;51.966;6.292;2023-05-10T12:16:26;26.80;45.80
44537;DHT22;30245;51.966;6.292;2023-05-10T12:18:56;26.70;45.70
44537;DHT22;30245;51.966;6.292;2023-05-10T12:21:21;26.90;45.60
44537;DHT22;30245;51.966;6.292;2023-05-10T12:23:51;26.90;45.60
44537;DHT22;30245;51.966;6.292;2023-05-10T12:26:17;26.90;45.60
44537;DHT22;30245;51.966;6.292;2023-05-10T12:28:43;26.90;45.40
44537;DHT22;30245;51.966;6.292;2023-05-10T12:31:09;26.60;45.40
44537;DHT22;30245;51.966;6.292;2023-05-10T12:33:44;26.50;45.60
44537;DHT22;30245;51.966;6.292;2023-05-10T12:36:14;26.30;45.50
44537;DHT22;30245;51.966;6.292;2023-05-10T12:38:42;26.20;45.70
44537;DHT22;30245;51.966;6.292;2023-05-10T12:41:10;26.00;45.80
44537;DHT22;30245;51.966;6.292;2023-05-10T12:43:37;25.90;46.00
44537;DHT22;30245;51.966;6.292;2023-05-10T12:48:36;25.80;45.80
44537;DHT22;30245;51.966;6.292;2023-05-10T12:51:03;25.80;45.40
44537;DHT22;30245;51.966;6.292;2023-05-10T12:53:28;25.90;45.50
44537;DHT22;30245;51.966;6.292;2023-05-10T12:55:55;25.90;45.10
44537;DHT22;30245;51.966;6.292;2023-05-10T12:58:20;25.80;44.90
44537;DHT22;30245;51.966;6.292;2023-05-10T13:00:46;25.70;45.20
44537;DHT22;30245;51.966;6.292;2023-05-10T13:03:11;25.60;45.40
44537;DHT22;30245;51.966;6.292;2023-05-10T13:05:38;25.60;45.40
44537;DHT22;30245;51.966;6.292;2023-05-10T13:08:03;25.60;45.40
44537;DHT22;30245;51.966;6.292;2023-05-10T13:10:30;25.60;45.50
44537;DHT22;30245;51.966;6.292;2023-05-10T13:12:56;25.60;45.40
44537;DHT22;30245;51.966;6.292;2023-05-10T13:15:22;25.70;45.30
44537;DHT22;30245;51.966;6.292;2023-05-10T13:17:48;25.70;45.10
44537;DHT22;30245;51.966;6.292;2023-05-10T13:20:13;25.80;45.10
44537;DHT22;30245;51.966;6.292;2023-05-10T13:22:40;25.80;45.20
44537;DHT22;30245;51.966;6.292;2023-05-10T13:25:07;25.70;45.10
44537;DHT22;30245;51.966;6.292;2023-05-10T13:27:33;25.80;45.20
44537;DHT22;30245;51.966;6.292;2023-05-10T13:29:59;25.70;45.10
44537;DHT22;30245;51.966;6.292;2023-05-10T13:32:25;25.70;45.10
44537;DHT22;30245;51.966;6.292;2023-05-10T13:34:51;25.50;45.20
44537;DHT22;30245;51.966;6.292;2023-05-10T13:37:16;25.60;45.10
44537;DHT22;30245;51.966;6.292;2023-05-10T13:39:42;25.60;45.20
44537;DHT22;30245;51.966;6.292;2023-05-10T13:42:08;25.70;45.10
44537;DHT22;30245;51.966;6.292;2023-05-10T13:44:33;25.70;44.80
44537;DHT22;30245;51.966;6.292;2023-05-10T13:46:59;25.80;44.70
44537;DHT22;30245;51.966;6.292;2023-05-10T13:49:25;25.90;44.60
44537;DHT22;30245;51.966;6.292;2023-05-10T13:51:50;25.90;44.30
44537;DHT22;30245;51.966;6.292;2023-05-10T13:54:16;26.00;44.30
44537;DHT22;30245;51.966;6.292;2023-05-10T13:56:45;26.00;44.20
44537;DHT22;30245;51.966;6.292;2023-05-10T13:59:12;26.00;44.20
44537;DHT22;30245;51.966;6.292;2023-05-10T14:01:39;25.90;44.30
44537;DHT22;30245;51.966;6.292;2023-05-10T14:04:05;25.80;44.30
44537;DHT22;30245;51.966;6.292;2023-05-10T14:06:31;25.70;44.40
44537;DHT22;30245;51.966;6.292;2023-05-10T14:08:57;25.60;44.50
44537;DHT22;30245;51.966;6.292;2023-05-10T14:11:22;25.40;44.60
44537;DHT22;30245;51.966;6.292;2023-05-10T14:13:48;25.30;44.80
44537;DHT22;30245;51.966;6.292;2023-05-10T14:16:14;25.30;44.80
44537;DHT22;30245;51.966;6.292;2023-05-10T14:18:40;25.30;44.90
44537;DHT22;30245;51.966;6.292;2023-05-10T14:21:05;25.20;44.80
44537;DHT22;30245;51.966;6.292;2023-05-10T14:23:31;25.20;45.00
44537;DHT22;30245;51.966;6.292;2023-05-10T14:25:57;25.20;45.10
44537;DHT22;30245;51.966;6.292;2023-05-10T14:28:22;25.20;45.00
44537;DHT22;30245;51.966;6.292;2023-05-10T14:30:48;25.20;45.10
44537;DHT22;30245;51.966;6.292;2023-05-10T14:33:14;25.20;45.10
44537;DHT22;30245;51.966;6.292;2023-05-10T14:35:40;25.10;45.10
44537;DHT22;30245;51.966;6.292;2023-05-10T14:38:06;25.00;45.30
44537;DHT22;30245;51.966;6.292;2023-05-10T14:40:31;24.90;45.40
44537;DHT22;30245;51.966;6.292;2023-05-10T14:42:57;24.80;45.60
44537;DHT22;30245;51.966;6.292;2023-05-10T14:45:23;24.80;45.80
44537;DHT22;30245;51.966;6.292;2023-05-10T14:47:49;24.80;45.80
44537;DHT22;30245;51.966;6.292;2023-05-10T14:50:15;24.70;45.80
44537;DHT22;30245;51.966;6.292;2023-05-10T14:52:42;24.60;45.90
44537;DHT22;30245;51.966;6.292;2023-05-10T14:55:08;24.50;46.10
44537;DHT22;30245;51.966;6.292;2023-05-10T14:57:33;24.40;46.40
44537;DHT22;30245;51.966;6.292;2023-05-10T14:59:59;24.40;46.50
44537;DHT22;30245;51.966;6.292;2023-05-10T15:02:25;24.20;46.80
44537;DHT22;30245;51.966;6.292;2023-05-10T15:04:50;24.00;47.30
44537;DHT22;30245;51.966;6.292;2023-05-10T15:07:16;23.80;48.10
44537;DHT22;30245;51.966;6.292;2023-05-10T15:09:46;23.50;48.80
44537;DHT22;30245;51.966;6.292;2023-05-10T15:12:12;23.40;49.40
44537;DHT22;30245;51.966;6.292;2023-05-10T15:14:37;23.30;49.90
44537;DHT22;30245;51.966;6.292;2023-05-10T15:17:03;23.10;50.40
44537;DHT22;30245;51.966;6.292;2023-05-10T15:19:29;23.00;50.70
44537;DHT22;30245;51.966;6.292;2023-05-10T15:21:55;23.00;51.00
44537;DHT22;30245;51.966;6.292;2023-05-10T15:24:21;23.00;51.20
44537;DHT22;30245;51.966;6.292;2023-05-10T15:26:47;22.90;51.30
44537;DHT22;30245;51.966;6.292;2023-05-10T15:29:13;22.90;51.50
44537;DHT22;30245;51.966;6.292;2023-05-10T15:31:45;22.80;51.40
44537;DHT22;30245;51.966;6.292;2023-05-10T15:34:11;22.80;51.50
44537;DHT22;30245;51.966;6.292;2023-05-10T15:36:37;22.70;51.60
44537;DHT22;30245;51.966;6.292;2023-05-10T15:39:05;22.60;51.70
44537;DHT22;30245;51.966;6.292;2023-05-10T15:41:31;22.60;51.80
44537;DHT22;30245;51.966;6.292;2023-05-10T15:43:57;22.60;51.90
44537;DHT22;30245;51.966;6.292;2023-05-10T15:46:25;22.60;51.90
44537;DHT22;30245;51.966;6.292;2023-05-10T15:48:51;22.70;51.90
44537;DHT22;30245;51.966;6.292;2023-05-10T15:51:16;22.70;51.80
44537;DHT22;30245;51.966;6.292;2023-05-10T15:53:44;22.60;51.70
44537;DHT22;30245;51.966;6.292;2023-05-10T15:56:09;22.50;51.90